Time;durP1;ratioP1;P1;durP2;ratioP2;P2;SDS_P1;SDS_P2;PMS_P1;PMS_P2;Temp;Humidity;BMP_temperature;BMP_pressure;BME280_temperature;BME280_humidity;BME280_pressure;Samples;Min_cycle;Max_cycle;Signal;HPM_P1;HPM_P2
2023/06/06 00:02:33;;;;;;;7.65;3.92;;;;;;;15.12;48.51;100861.25;20814486;28;20185;-78
2023/06/06 00:12:36;;;;;;;6.53;3.50;;;;;;;14.80;49.11;100863.09;20814297;28;20251;-78
2023/06/06 00:22:39;;;;;;;5.68;3.58;;;;;;;14.83;49.09;100853.88;20813359;28;20193;-79
2023/06/06 00:32:41;;;;;;;7.78;4.97;;;;;;;14.95;48.96;100861.53;20746289;28;20241;-78
2023/06/06 00:42:43;;;;;;;8.68;4.82;;;;;;;13.91;51.73;100863.00;20746146;28;20205;-79
2023/06/06 00:52:46;;;;;;;8.52;4.90;;;;;;;14.23;50.54;100860.44;20766834;28;20232;-78
2023/06/06 01:02:49;;;;;;;6.53;4.85;;;;;;;14.14;51.06;100871.88;20720385;28;20212;-79
2023/06/06 01:12:59;;;;;;;11.43;5.38;;;;;;;13.72;52.53;100869.19;20714525;28;20220;-79
2023/06/06 01:23:02;;;;;;;8.95;5.40;;;;;;;13.92;52.10;100866.66;20724759;28;20248;-77
2023/06/06 01:33:19;;;;;;;9.98;6.13;;;;;;;13.62;52.33;100863.97;20784007;28;20225;-78
2023/06/06 01:43:25;;;;;;;10.57;6.20;;;;;;;13.83;52.24;100857.44;20793558;28;20706;-78
2023/06/06 01:53:29;;;;;;;8.98;6.68;;;;;;;13.52;52.94;100867.25;20801085;28;20216;-78
2023/06/06 02:03:32;;;;;;;8.15;6.15;;;;;;;13.29;53.18;100865.97;20782329;28;20193;-80
2023/06/06 02:13:34;;;;;;;9.75;6.72;;;;;;;12.74;55.49;100867.06;20814882;28;20518;-78
2023/06/06 02:23:37;;;;;;;9.63;6.57;;;;;;;12.84;54.50;100878.00;20820416;28;20254;-78
2023/06/06 02:33:40;;;;;;;13.75;7.63;;;;;;;13.00;54.09;100881.06;20845273;28;20270;-80
2023/06/06 02:43:42;;;;;;;11.50;6.45;;;;;;;12.49;55.51;100879.41;20825218;28;20188;-79
2023/06/06 02:53:45;;;;;;;12.55;6.18;;;;;;;12.38;55.69;100876.97;20818277;28;20221;-79
2023/06/06 03:03:48;;;;;;;12.65;6.75;;;;;;;12.11;55.85;100873.75;20817076;28;20596;-77
2023/06/06 03:13:51;;;;;;;9.45;6.57;;;;;;;12.01;56.23;100872.97;20828011;28;20608;-79
2023/06/06 03:23:54;;;;;;;10.68;6.95;;;;;;;11.88;56.21;100884.50;20817110;28;20196;-78
2023/06/06 03:33:58;;;;;;;10.32;6.78;;;;;;;11.85;56.43;100896.47;20820981;28;20251;-78
2023/06/06 03:44:02;;;;;;;9.95;6.82;;;;;;;11.63;56.68;100901.22;20811731;28;20601;-78
2023/06/06 03:54:04;;;;;;;10.15;6.03;;;;;;;11.84;56.01;100894.81;20812764;28;20672;-79
2023/06/06 04:04:08;;;;;;;14.18;6.78;;;;;;;11.59;57.10;100888.91;20813313;28;20193;-79
2023/06/06 04:14:12;;;;;;;13.13;7.85;;;;;;;11.96;55.53;100886.44;20773548;28;20216;-78
2023/06/06 04:24:14;;;;;;;11.75;6.68;;;;;;;11.91;55.96;100897.94;20780284;28;20650;-79
2023/06/06 04:34:17;;;;;;;9.18;7.20;;;;;;;12.00;55.50;100899.59;20810207;28;20224;-79
2023/06/06 04:44:20;;;;;;;11.75;7.15;;;;;;;11.08;58.95;100901.06;20826175;28;20200;-79
2023/06/06 04:54:23;;;;;;;9.98;6.60;;;;;;;11.46;56.93;100906.88;20785066;28;20235;-79
2023/06/06 05:04:25;;;;;;;11.52;6.85;;;;;;;11.71;56.59;100898.69;20815735;28;20556;-79
2023/06/06 05:14:28;;;;;;;13.23;7.43;;;;;;;11.64;56.30;100899.22;20814628;28;20217;-78
2023/06/06 05:24:30;;;;;;;10.85;7.40;;;;;;;11.42;56.58;100908.72;20800218;28;20200;-78
2023/06/06 05:34:33;;;;;;;11.80;7.60;;;;;;;11.88;55.31;100902.31;20813861;28;20702;-79
2023/06/06 05:44:35;;;;;;;11.48;7.35;;;;;;;12.26;54.74;100904.34;20816001;28;20200;-77
2023/06/06 05:54:38;;;;;;;10.23;7.00;;;;;;;12.48;53.82;100903.22;20790445;28;20212;-79
2023/06/06 06:04:52;;;;;;;10.52;7.40;;;;;;;12.37;54.20;100897.13;20820196;28;20193;-78
2023/06/06 06:14:56;;;;;;;13.57;8.38;;;;;;;12.62;53.96;100898.16;20802666;28;20217;-78
2023/06/06 06:24:58;;;;;;;11.57;7.93;;;;;;;12.65;53.92;100897.47;20787126;28;20259;-78
2023/06/06 06:35:03;;;;;;;9.27;7.28;;;;;;;13.04;52.95;100904.72;20810099;28;20252;-78
2023/06/06 06:45:08;;;;;;;15.65;8.55;;;;;;;12.79;53.83;100906.53;20804312;28;20196;-79
2023/06/06 06:55:10;;;;;;;14.45;8.35;;;;;;;12.97;54.39;100910.91;20817131;28;21034;-79
2023/06/06 07:05:16;;;;;;;14.48;8.65;;;;;;;12.94;54.08;100914.41;20827114;28;20223;-78
2023/06/06 07:15:19;;;;;;;12.00;8.30;;;;;;;13.74;52.33;100922.75;20810174;28;20228;-79
2023/06/06 07:25:22;;;;;;;14.75;8.40;;;;;;;14.01;50.51;100915.63;20822859;28;20208;-79
2023/06/06 07:35:30;;;;;;;11.32;7.65;;;;;;;14.37;49.79;100901.47;20762023;28;20233;-78
2023/06/06 07:45:32;;;;;;;13.00;8.25;;;;;;;15.02;49.06;100899.53;20758815;28;20239;-79
2023/06/06 07:55:35;;;;;;;11.82;7.57;;;;;;;14.80;49.09;100891.53;20759388;28;20240;-79
2023/06/06 08:05:40;;;;;;;12.48;7.97;;;;;;;15.88;47.48;100897.19;20796538;28;20667;-79
2023/06/06 08:15:42;;;;;;;15.40;8.75;;;;;;;16.18;46.99;100891.94;20742954;28;20568;-78
2023/06/06 08:25:45;;;;;;;19.08;8.18;;;;;;;16.89;46.13;100879.44;20735515;28;20201;-79
2023/06/06 08:35:47;;;;;;;12.52;8.05;;;;;;;16.61;47.30;100880.41;20804094;28;20224;-79
2023/06/06 08:45:56;;;;;;;12.40;8.05;;;;;;;16.51;46.96;100880.13;20840198;28;20563;-79
2023/06/06 08:55:59;;;;;;;16.10;9.40;;;;;;;17.42;45.77;100885.50;20839563;28;20212;-78
2023/06/06 09:06:01;;;;;;;13.52;7.90;;;;;;;16.97;45.49;100886.94;20805232;28;20180;-78
2023/06/06 09:16:04;;;;;;;17.38;8.27;;;;;;;17.66;43.52;100885.19;20820996;28;20605;-79
2023/06/06 09:26:20;;;;;;;13.07;7.80;;;;;;;18.11;42.69;100886.47;20821155;28;20247;-79
2023/06/06 09:36:25;;;;;;;12.68;7.90;;;;;;;18.83;40.88;100875.00;20821381;28;20215;-78
2023/06/06 09:46:27;;;;;;;12.15;8.10;;;;;;;18.39;42.00;100864.09;20822681;28;20203;-80
2023/06/06 09:56:30;;;;;;;14.10;7.63;;;;;;;19.25;39.74;100864.19;20836528;28;20212;-79
2023/06/06 10:06:33;;;;;;;11.85;8.23;;;;;;;18.33;41.31;100862.75;20819285;28;20184;-78
2023/06/06 10:16:36;;;;;;;10.90;7.25;;;;;;;19.52;39.93;100867.78;20828489;28;20208;-78
2023/06/06 10:26:45;;;;;;;10.80;6.20;;;;;;;19.22;40.47;100859.22;20850934;28;20189;-79
2023/06/06 10:36:48;;;;;;;8.60;5.40;;;;;;;19.73;39.00;100850.00;20815908;28;20228;-79
2023/06/06 10:46:50;;;;;;;10.90;6.13;;;;;;;19.85;37.82;100849.75;20849675;28;20466;-79
2023/06/06 10:56:56;;;;;;;11.50;5.50;;;;;;;20.29;36.45;100844.03;20800584;28;20620;-79
2023/06/06 11:07:00;;;;;;;8.40;5.50;;;;;;;20.37;35.19;100833.41;20835812;28;20197;-79
2023/06/06 11:17:03;;;;;;;6.85;4.60;;;;;;;20.20;33.73;100831.25;20795071;28;20247;-79
2023/06/06 11:27:06;;;;;;;5.30;3.65;;;;;;;21.77;33.12;100819.41;20791262;28;20252;-78
2023/06/06 11:49:17;;;;;;;5.53;4.30;;;;;;;21.95;31.08;100803.00;20708269;28;20204;-79
2023/06/06 11:59:19;;;;;;;6.13;3.65;;;;;;;21.63;32.81;100800.09;20713419;28;20291;-80
2023/06/06 12:09:23;;;;;;;5.95;3.85;;;;;;;21.28;31.42;100803.66;20636486;28;20540;-79
2023/06/06 12:19:26;;;;;;;4.25;3.33;;;;;;;20.79;32.04;100805.06;20599259;28;20284;-79
2023/06/06 12:29:35;;;;;;;5.80;3.00;;;;;;;22.23;29.88;100791.53;20611353;28;20268;-79
2023/06/06 12:39:40;;;;;;;7.88;3.63;;;;;;;21.34;31.79;100793.44;20620633;28;20300;-78
2023/06/06 12:49:44;;;;;;;5.82;2.90;;;;;;;21.41;31.77;100790.56;20608740;28;20217;-80
2023/06/06 12:59:47;;;;;;;3.72;2.42;;;;;;;22.38;30.21;100785.75;20627359;28;20241;-80
2023/06/06 13:09:49;;;;;;;5.20;2.35;;;;;;;21.21;29.93;100792.16;20620359;28;20253;-79
2023/06/06 13:19:52;;;;;;;3.50;2.42;;;;;;;21.59;29.96;100786.94;20602746;28;20268;-79
2023/06/06 13:29:54;;;;;;;5.00;2.67;;;;;;;21.70;28.41;100785.72;20630429;28;20564;-79
2023/06/06 13:39:56;;;;;;;4.70;2.60;;;;;;;21.15;31.38;100785.16;20626779;28;20261;-79
2023/06/06 13:49:58;;;;;;;4.15;2.42;;;;;;;21.82;28.53;100779.59;20636128;28;20194;-79
2023/06/06 14:00:01;;;;;;;5.80;2.88;;;;;;;22.05;30.18;100761.91;20642390;28;20660;-79
2023/06/06 14:10:07;;;;;;;6.63;2.60;;;;;;;21.25;31.68;100770.00;20662162;28;20348;-79
2023/06/06 14:20:13;;;;;;;6.10;2.65;;;;;;;21.41;31.89;100755.28;20640646;28;20622;-78
2023/06/06 14:30:15;;;;;;;3.95;2.20;;;;;;;21.19;31.37;100760.16;20634244;28;20225;-79
2023/06/06 14:40:17;;;;;;;6.38;2.28;;;;;;;21.34;30.88;100750.34;20717108;28;20217;-79
2023/06/06 14:50:21;;;;;;;6.28;2.50;;;;;;;22.79;28.38;100743.75;20717005;28;20189;-79
2023/06/06 15:00:23;;;;;;;3.83;2.40;;;;;;;21.37;28.44;100738.06;20701951;28;20240;-79
2023/06/06 15:10:26;;;;;;;3.70;2.53;;;;;;;21.71;28.57;100729.09;20703075;28;20189;-79
2023/06/06 15:20:28;;;;;;;4.15;2.13;;;;;;;22.17;25.98;100729.91;20691081;28;20218;-78
2023/06/06 15:30:31;;;;;;;3.83;1.98;;;;;;;22.41;27.06;100728.22;20701883;28;20244;-78
2023/06/06 15:40:33;;;;;;;4.85;2.08;;;;;;;21.41;27.17;100712.19;20714244;28;20299;-78
2023/06/06 15:50:36;;;;;;;5.75;2.35;;;;;;;21.99;26.25;100705.25;20698655;28;20224;-79
2023/06/06 16:00:38;;;;;;;3.38;2.20;;;;;;;22.58;25.54;100703.50;20710584;28;20236;-80
2023/06/06 16:10:40;;;;;;;3.53;1.77;;;;;;;22.01;25.66;100700.75;20702842;28;20267;-79
2023/06/06 16:20:43;;;;;;;5.22;1.80;;;;;;;21.02;26.22;100709.22;20690059;28;20253;-79
2023/06/06 16:30:45;;;;;;;4.10;2.05;;;;;;;21.12;25.05;100712.13;20688405;28;20322;-79
2023/06/06 16:40:48;;;;;;;3.50;2.05;;;;;;;21.83;25.24;100717.19;20684107;28;20283;-80
2023/06/06 16:50:51;;;;;;;3.85;1.90;;;;;;;21.61;27.61;100729.91;20693804;28;20204;-80
2023/06/06 17:00:53;;;;;;;2.28;1.80;;;;;;;21.57;25.40;100726.19;20688867;28;20951;-79
2023/06/06 17:10:55;;;;;;;3.55;2.15;;;;;;;20.56;25.12;100727.06;20686812;28;20197;-80
2023/06/06 17:20:59;;;;;;;5.28;2.70;;;;;;;21.09;27.38;100717.88;20702958;28;20703;-79
2023/06/06 17:31:02;;;;;;;5.82;2.33;;;;;;;21.42;27.57;100729.00;20690022;28;20608;-79
2023/06/06 17:41:05;;;;;;;4.90;4.05;;;;;;;21.50;30.25;100729.88;20693344;28;20299;-80
2023/06/06 17:51:07;;;;;;;5.60;2.60;;;;;;;21.42;29.87;100729.00;20694240;28;20216;-79
2023/06/06 18:01:10;;;;;;;5.03;2.85;;;;;;;20.94;31.69;100730.50;20693553;28;20252;-80
2023/06/06 18:11:13;;;;;;;4.82;3.20;;;;;;;20.88;32.08;100726.38;20707791;28;20287;-79
2023/06/06 18:21:16;;;;;;;5.55;3.17;;;;;;;20.24;33.45;100734.59;20689627;28;20249;-81
2023/06/06 18:31:18;;;;;;;6.25;3.35;;;;;;;20.05;34.44;100750.88;20698634;28;20219;-80
2023/06/06 18:41:39;;;;;;;7.53;3.45;;;;;;;20.14;34.76;100756.25;20722593;28;20514;-79
2023/06/06 18:51:46;;;;;;;3.97;3.47;;;;;;;20.03;34.73;100747.59;20706714;28;20294;-79
2023/06/06 19:01:49;;;;;;;4.30;3.20;;;;;;;19.83;35.45;100753.94;20725614;28;20245;-79
2023/06/06 19:11:52;;;;;;;7.50;4.25;;;;;;;19.88;36.26;100753.59;20718962;28;20248;-79
2023/06/06 19:21:55;;;;;;;5.13;3.45;;;;;;;19.72;36.47;100762.41;20687329;28;20275;-80
2023/06/06 19:31:57;;;;;;;5.78;3.20;;;;;;;19.81;36.47;100776.47;20718533;28;20741;-79
2023/06/06 19:42:00;;;;;;;4.80;3.40;;;;;;;19.40;36.91;100780.13;20711994;28;20625;-79
2023/06/06 19:52:06;;;;;;;4.25;3.22;;;;;;;19.41;36.95;100780.94;20701395;28;20920;-78
2023/06/06 20:02:08;;;;;;;6.15;3.47;;;;;;;19.33;36.58;100785.75;20709808;28;20295;-78
2023/06/06 20:12:11;;;;;;;6.25;2.88;;;;;;;18.63;37.58;100792.22;20711110;28;20336;-80
2023/06/06 20:22:14;;;;;;;5.88;3.33;;;;;;;18.86;36.78;100800.69;20689952;28;20248;-78
2023/06/06 20:32:17;;;;;;;4.15;3.30;;;;;;;18.42;38.05;100816.75;20695541;28;20244;-77
2023/06/06 20:42:20;;;;;;;7.10;3.90;;;;;;;18.06;39.24;100821.06;20689258;28;20248;-78
2023/06/06 20:52:23;;;;;;;6.50;3.42;;;;;;;17.90;39.83;100827.69;20713656;28;20691;-78
2023/06/06 21:02:25;;;;;;;6.47;3.55;;;;;;;17.48;41.14;100827.75;20743355;28;20197;-78
2023/06/06 21:12:30;;;;;;;8.00;3.58;;;;;;;17.85;40.37;100839.47;20738886;28;20220;-78
2023/06/06 21:22:32;;;;;;;11.05;6.32;;;;;;;17.83;40.19;100844.72;20735407;28;20197;-77
2023/06/06 21:32:35;;;;;;;7.70;4.05;;;;;;;16.88;42.49;100840.69;20744332;28;20217;-78
2023/06/06 21:42:37;;;;;;;5.13;3.40;;;;;;;17.58;40.21;100838.53;20745807;28;20201;-78
2023/06/06 21:52:40;;;;;;;9.70;2.95;;;;;;;17.04;40.17;100847.19;20716502;28;20472;-78
2023/06/06 22:02:42;;;;;;;6.57;3.13;;;;;;;17.28;40.09;100846.91;20699314;28;20263;-78
2023/06/06 22:12:44;;;;;;;7.05;3.90;;;;;;;17.39;40.51;100857.72;20719568;28;20247;-77
2023/06/06 22:22:46;;;;;;;9.20;3.80;;;;;;;17.15;41.76;100859.63;20742230;28;20257;-78
2023/06/06 22:32:49;;;;;;;8.43;3.70;;;;;;;17.48;41.10;100849.75;20716984;28;20300;-78
2023/06/06 22:42:55;;;;;;;12.80;3.70;;;;;;;16.97;43.17;100858.41;20754829;28;20598;-78
2023/06/06 22:52:57;;;;;;;6.38;3.88;;;;;;;17.01;43.56;100847.91;20722012;28;20217;-78
2023/06/06 23:02:59;;;;;;;4.70;4.03;;;;;;;17.07;44.51;100839.91;20736945;28;20251;-77
2023/06/06 23:13:02;;;;;;;8.25;4.65;;;;;;;16.16;47.17;100851.59;20717859;28;20210;-78
2023/06/06 23:23:04;;;;;;;6.97;4.88;;;;;;;16.71;46.68;100835.41;20740945;28;20202;-78
2023/06/06 23:33:06;;;;;;;7.50;4.43;;;;;;;16.83;46.54;100849.56;20748574;28;20233;-77
2023/06/06 23:43:09;;;;;;;9.98;4.72;;;;;;;17.03;46.45;100848.38;20706345;28;20193;-77
2023/06/06 23:53:11;;;;;;;12.07;5.20;;;;;;;16.69;46.95;100852.09;20761018;28;20707;-78
